Terminal Aerodrome Forecast
Issued by NWS Omaha/Valley, NE

Home | Current Version | Previous Version | Text Only | Print | Product List | Glossary On
Versions: 1 2 3 4 5 6 7 8 9 10 11 12 13 14 15 16 17 18
951
FTUS43 KOAX 221120
TAFLNK
TAF
KLNK 221120Z 2212/2312 VRB03KT P6SM SCT250
     FM221500 19009KT P6SM BKN060 OVC150
     FM222200 14011KT P6SM BKN035 OVC060=

USA.gov is the U.S. government's official web portal to all federal, state and local government web resources and services.